Fort Lauderdale, FL (33302)

3:41 AM EST on February 12, 2016 (GMT -0500)
Sheridan Park | | Change Station
CLOSE
Current Station
Personal Weather Station
Location: Hollywood, FL
Elevation: 6 ft
Nearby Weather Stations

Elev 6 ft 26.03 °N, 80.20 °W | Updated 29 seconds ago

Clear
Clear
49.6 °F
Feels Like 50 °F
N
0.0
Wind Variable Wind from NNW

Today
High -- | Low -- °F
--% Chance of Precip.
Yesterday
High -- | Low -- °F
Precip. -- in
Pressure 30.25 in
Visibility 10.0 miles
Clouds Clear
Windchill 50 °F
Dew Point 47 °F
Humidity 91%
Rainfall 0.00 in
Snow Depth Not available.
6:58 AM 6:11 PM
Waxing Crescent, 18% visible
METAR KFLL 120753Z 35005KT 10SM CLR 12/08 A3025 RMK AO2 SLP242 T01170078
Pressure 30.25 in
Visibility 10.0 miles
Clouds Clear
Windchill 50 °F
Dew Point 47 °F
Humidity 91%
Rainfall 0.00 in
Snow Depth Not available.
6:58 AM 6:11 PM
Waxing Crescent, 18% visible
METAR KFLL 120753Z 35005KT 10SM CLR 12/08 A3025 RMK AO2 SLP242 T01170078

10-Day Weather Forecast

Almanac

Astronomy

Feb. 12, 2016 Rise Set
Actual Time
Civil Twilight
Nautical Twilight
Astronomical Twilight
Moon
Length of Visible Light
Length of Day
Tomorrow will be .
, % of the Moon is Illuminated

Today's Extremes

State Highs State Lows

Community

WunderPhotos

Upload Photos

1,892,284 photos uploaded!

WunderBlog® & News

Nearby

Air Quality

  Air Quality AQ Index Pollutant
Not available.

Snow Depth

Station Depth Elevation

Earthquake Activity

City Distance Mag. Time & Date
Minimum magnitude displayed is 2.5.

Coastal Water Temperatures

Place Temperature

Stations

Nearby Weather Stations

Station Location Temp. Windchill Dew Point Humidity Wind Precip. Elev Updated Type
                   

Watches & Warnings

There are currently no watches in effect.